sensor_id;sensor_type;location;lat;lon;timestamp;P1;durP1;ratioP1;P2;durP2;ratioP2
22282;SDS011;11310;51.528;21.204;2023-09-30T00:00:22;43.13;;;12.43;;
22282;SDS011;11310;51.528;21.204;2023-09-30T00:02:52;70.63;;;17.45;;
22282;SDS011;11310;51.528;21.204;2023-09-30T00:05:20;53.50;;;13.35;;
22282;SDS011;11310;51.528;21.204;2023-09-30T00:07:50;63.72;;;15.55;;
22282;SDS011;11310;51.528;21.204;2023-09-30T00:10:18;45.50;;;11.95;;
22282;SDS011;11310;51.528;21.204;2023-09-30T00:12:50;38.08;;;10.57;;
22282;SDS011;11310;51.528;21.204;2023-09-30T00:15:18;61.63;;;15.18;;
22282;SDS011;11310;51.528;21.204;2023-09-30T00:17:47;38.45;;;11.63;;
22282;SDS011;11310;51.528;21.204;2023-09-30T00:20:16;77.68;;;18.98;;
22282;SDS011;11310;51.528;21.204;2023-09-30T00:22:45;36.20;;;11.10;;
22282;SDS011;11310;51.528;21.204;2023-09-30T00:25:13;68.93;;;17.63;;
22282;SDS011;11310;51.528;21.204;2023-09-30T00:27:45;34.95;;;10.25;;
22282;SDS011;11310;51.528;21.204;2023-09-30T00:30:15;96.07;;;23.77;;
22282;SDS011;11310;51.528;21.204;2023-09-30T00:32:44;38.33;;;11.43;;
22282;SDS011;11310;51.528;21.204;2023-09-30T00:35:13;54.05;;;15.20;;
22282;SDS011;11310;51.528;21.204;2023-09-30T00:37:44;35.50;;;11.02;;
22282;SDS011;11310;51.528;21.204;2023-09-30T00:40:13;46.83;;;13.90;;
22282;SDS011;11310;51.528;21.204;2023-09-30T00:42:41;57.10;;;16.35;;
22282;SDS011;11310;51.528;21.204;2023-09-30T00:45:10;45.65;;;13.27;;
22282;SDS011;11310;51.528;21.204;2023-09-30T00:47:39;48.28;;;14.48;;
22282;SDS011;11310;51.528;21.204;2023-09-30T00:50:09;35.22;;;11.82;;
22282;SDS011;11310;51.528;21.204;2023-09-30T00:52:39;36.72;;;11.77;;
22282;SDS011;11310;51.528;21.204;2023-09-30T00:55:10;44.90;;;13.40;;
22282;SDS011;11310;51.528;21.204;2023-09-30T00:57:39;32.33;;;10.93;;
22282;SDS011;11310;51.528;21.204;2023-09-30T01:00:08;46.42;;;12.75;;
22282;SDS011;11310;51.528;21.204;2023-09-30T01:02:40;36.67;;;10.95;;
22282;SDS011;11310;51.528;21.204;2023-09-30T01:05:11;48.92;;;13.18;;
22282;SDS011;11310;51.528;21.204;2023-09-30T01:07:43;29.17;;;9.80;;
22282;SDS011;11310;51.528;21.204;2023-09-30T01:10:13;57.28;;;15.13;;
22282;SDS011;11310;51.528;21.204;2023-09-30T01:12:41;49.67;;;13.48;;
22282;SDS011;11310;51.528;21.204;2023-09-30T01:15:10;60.15;;;17.10;;
22282;SDS011;11310;51.528;21.204;2023-09-30T01:17:39;27.17;;;8.80;;
22282;SDS011;11310;51.528;21.204;2023-09-30T01:20:08;67.93;;;18.67;;
22282;SDS011;11310;51.528;21.204;2023-09-30T01:22:39;26.38;;;9.25;;
22282;SDS011;11310;51.528;21.204;2023-09-30T01:25:08;47.95;;;13.73;;
22282;SDS011;11310;51.528;21.204;2023-09-30T01:27:38;28.02;;;9.95;;
22282;SDS011;11310;51.528;21.204;2023-09-30T01:30:10;34.17;;;11.65;;
22282;SDS011;11310;51.528;21.204;2023-09-30T01:32:41;26.35;;;9.93;;
22282;SDS011;11310;51.528;21.204;2023-09-30T01:35:09;45.95;;;14.65;;
22282;SDS011;11310;51.528;21.204;2023-09-30T01:37:39;32.28;;;11.30;;
22282;SDS011;11310;51.528;21.204;2023-09-30T01:40:09;41.33;;;13.48;;
22282;SDS011;11310;51.528;21.204;2023-09-30T01:42:38;37.45;;;12.07;;
22282;SDS011;11310;51.528;21.204;2023-09-30T01:45:07;29.77;;;11.13;;
22282;SDS011;11310;51.528;21.204;2023-09-30T01:47:37;37.17;;;12.90;;
22282;SDS011;11310;51.528;21.204;2023-09-30T01:50:06;46.10;;;14.05;;
22282;SDS011;11310;51.528;21.204;2023-09-30T01:52:34;34.30;;;10.60;;
22282;SDS011;11310;51.528;21.204;2023-09-30T01:55:04;42.42;;;13.13;;
22282;SDS011;11310;51.528;21.204;2023-09-30T01:57:34;23.97;;;8.93;;
22282;SDS011;11310;51.528;21.204;2023-09-30T02:00:03;52.30;;;16.63;;
22282;SDS011;11310;51.528;21.204;2023-09-30T02:02:39;27.48;;;9.40;;
22282;SDS011;11310;51.528;21.204;2023-09-30T02:05:09;31.50;;;10.73;;
22282;SDS011;11310;51.528;21.204;2023-09-30T02:07:38;21.00;;;8.30;;
22282;SDS011;11310;51.528;21.204;2023-09-30T02:10:08;46.38;;;15.20;;
22282;SDS011;11310;51.528;21.204;2023-09-30T02:12:37;35.65;;;12.35;;
22282;SDS011;11310;51.528;21.204;2023-09-30T02:15:06;47.28;;;16.10;;
22282;SDS011;11310;51.528;21.204;2023-09-30T02:17:35;22.48;;;8.15;;
22282;SDS011;11310;51.528;21.204;2023-09-30T02:20:04;48.53;;;16.42;;
22282;SDS011;11310;51.528;21.204;2023-09-30T02:22:34;25.23;;;9.30;;
22282;SDS011;11310;51.528;21.204;2023-09-30T02:25:03;66.00;;;22.38;;
22282;SDS011;11310;51.528;21.204;2023-09-30T02:27:35;28.90;;;9.02;;
22282;SDS011;11310;51.528;21.204;2023-09-30T02:30:04;68.35;;;23.00;;
22282;SDS011;11310;51.528;21.204;2023-09-30T02:32:33;33.00;;;11.77;;
22282;SDS011;11310;51.528;21.204;2023-09-30T02:35:01;41.28;;;14.90;;
22282;SDS011;11310;51.528;21.204;2023-09-30T02:37:31;29.73;;;11.48;;
22282;SDS011;11310;51.528;21.204;2023-09-30T02:40:02;28.70;;;10.43;;
22282;SDS011;11310;51.528;21.204;2023-09-30T02:42:37;39.05;;;13.75;;
22282;SDS011;11310;51.528;21.204;2023-09-30T02:45:07;39.92;;;14.52;;
22282;SDS011;11310;51.528;21.204;2023-09-30T02:47:38;24.73;;;9.55;;
22282;SDS011;11310;51.528;21.204;2023-09-30T02:50:08;35.90;;;13.57;;
22282;SDS011;11310;51.528;21.204;2023-09-30T02:52:39;21.13;;;9.00;;
22282;SDS011;11310;51.528;21.204;2023-09-30T02:55:08;33.63;;;13.05;;
22282;SDS011;11310;51.528;21.204;2023-09-30T02:57:39;28.90;;;10.38;;
22282;SDS011;11310;51.528;21.204;2023-09-30T03:00:09;34.92;;;12.82;;
22282;SDS011;11310;51.528;21.204;2023-09-30T03:02:51;31.58;;;11.13;;
22282;SDS011;11310;51.528;21.204;2023-09-30T03:05:20;26.15;;;11.00;;
22282;SDS011;11310;51.528;21.204;2023-09-30T03:07:49;41.50;;;15.60;;
22282;SDS011;11310;51.528;21.204;2023-09-30T03:10:19;33.70;;;12.57;;
22282;SDS011;11310;51.528;21.204;2023-09-30T03:12:52;27.13;;;11.00;;
22282;SDS011;11310;51.528;21.204;2023-09-30T03:15:21;32.08;;;12.13;;
22282;SDS011;11310;51.528;21.204;2023-09-30T03:17:50;23.25;;;9.93;;
22282;SDS011;11310;51.528;21.204;2023-09-30T03:20:20;43.35;;;14.95;;
22282;SDS011;11310;51.528;21.204;2023-09-30T03:22:48;24.17;;;9.00;;
22282;SDS011;11310;51.528;21.204;2023-09-30T03:25:17;35.05;;;13.93;;
22282;SDS011;11310;51.528;21.204;2023-09-30T03:27:47;23.70;;;8.73;;
22282;SDS011;11310;51.528;21.204;2023-09-30T03:30:18;28.55;;;11.07;;
22282;SDS011;11310;51.528;21.204;2023-09-30T03:32:48;26.70;;;10.55;;
22282;SDS011;11310;51.528;21.204;2023-09-30T03:35:16;30.25;;;11.07;;
22282;SDS011;11310;51.528;21.204;2023-09-30T03:37:45;28.45;;;11.95;;
22282;SDS011;11310;51.528;21.204;2023-09-30T03:40:15;34.13;;;13.40;;
22282;SDS011;11310;51.528;21.204;2023-09-30T03:42:47;33.75;;;13.90;;
22282;SDS011;11310;51.528;21.204;2023-09-30T03:45:18;27.77;;;11.77;;
22282;SDS011;11310;51.528;21.204;2023-09-30T03:47:47;29.38;;;11.77;;
22282;SDS011;11310;51.528;21.204;2023-09-30T03:50:17;29.25;;;11.88;;
22282;SDS011;11310;51.528;21.204;2023-09-30T03:52:45;30.05;;;12.35;;
22282;SDS011;11310;51.528;21.204;2023-09-30T03:55:15;31.85;;;11.95;;
22282;SDS011;11310;51.528;21.204;2023-09-30T03:57:48;23.55;;;9.68;;
22282;SDS011;11310;51.528;21.204;2023-09-30T04:00:20;26.92;;;10.45;;
22282;SDS011;11310;51.528;21.204;2023-09-30T04:02:49;21.63;;;9.00;;
22282;SDS011;11310;51.528;21.204;2023-09-30T04:05:21;26.50;;;11.55;;
22282;SDS011;11310;51.528;21.204;2023-09-30T04:07:55;38.80;;;15.80;;
22282;SDS011;11310;51.528;21.204;2023-09-30T04:10:24;32.72;;;12.80;;
22282;SDS011;11310;51.528;21.204;2023-09-30T04:12:54;26.60;;;11.13;;
22282;SDS011;11310;51.528;21.204;2023-09-30T04:15:26;30.25;;;12.52;;
22282;SDS011;11310;51.528;21.204;2023-09-30T04:17:55;22.60;;;9.60;;
22282;SDS011;11310;51.528;21.204;2023-09-30T04:20:25;28.52;;;12.20;;
22282;SDS011;11310;51.528;21.204;2023-09-30T04:22:54;20.17;;;9.00;;
22282;SDS011;11310;51.528;21.204;2023-09-30T04:25:24;28.95;;;12.65;;
22282;SDS011;11310;51.528;21.204;2023-09-30T04:27:53;20.15;;;9.05;;
22282;SDS011;11310;51.528;21.204;2023-09-30T04:30:22;23.77;;;10.95;;
22282;SDS011;11310;51.528;21.204;2023-09-30T04:32:52;25.27;;;11.18;;
22282;SDS011;11310;51.528;21.204;2023-09-30T04:35:21;35.70;;;14.02;;
22282;SDS011;11310;51.528;21.204;2023-09-30T04:37:53;34.67;;;15.07;;
22282;SDS011;11310;51.528;21.204;2023-09-30T04:40:21;25.85;;;11.82;;
22282;SDS011;11310;51.528;21.204;2023-09-30T04:42:50;35.25;;;16.00;;
22282;SDS011;11310;51.528;21.204;2023-09-30T04:45:21;25.10;;;11.02;;
22282;SDS011;11310;51.528;21.204;2023-09-30T04:47:53;22.75;;;10.32;;
22282;SDS011;11310;51.528;21.204;2023-09-30T04:50:28;23.02;;;9.98;;
22282;SDS011;11310;51.528;21.204;2023-09-30T04:52:57;17.27;;;8.43;;
22282;SDS011;11310;51.528;21.204;2023-09-30T04:55:25;18.02;;;8.73;;
22282;SDS011;11310;51.528;21.204;2023-09-30T04:57:55;24.38;;;11.40;;
22282;SDS011;11310;51.528;21.204;2023-09-30T05:00:23;29.30;;;13.82;;
22282;SDS011;11310;51.528;21.204;2023-09-30T05:02:55;20.90;;;10.35;;
22282;SDS011;11310;51.528;21.204;2023-09-30T05:05:26;23.77;;;10.40;;
22282;SDS011;11310;51.528;21.204;2023-09-30T05:07:56;24.08;;;12.35;;
22282;SDS011;11310;51.528;21.204;2023-09-30T05:10:25;21.42;;;9.73;;
22282;SDS011;11310;51.528;21.204;2023-09-30T05:12:55;18.98;;;10.10;;
22282;SDS011;11310;51.528;21.204;2023-09-30T05:15:24;21.48;;;10.25;;
22282;SDS011;11310;51.528;21.204;2023-09-30T05:17:52;22.92;;;10.23;;
22282;SDS011;11310;51.528;21.204;2023-09-30T05:20:24;25.30;;;10.23;;
22282;SDS011;11310;51.528;21.204;2023-09-30T05:22:53;27.88;;;10.48;;
22282;SDS011;11310;51.528;21.204;2023-09-30T05:25:30;25.63;;;10.80;;
22282;SDS011;11310;51.528;21.204;2023-09-30T05:27:59;40.05;;;16.15;;
22282;SDS011;11310;51.528;21.204;2023-09-30T05:30:28;28.70;;;11.57;;
22282;SDS011;11310;51.528;21.204;2023-09-30T05:32:59;27.63;;;11.00;;
22282;SDS011;11310;51.528;21.204;2023-09-30T05:35:28;25.50;;;11.07;;
22282;SDS011;11310;51.528;21.204;2023-09-30T05:37:59;27.20;;;10.32;;
22282;SDS011;11310;51.528;21.204;2023-09-30T05:40:27;31.65;;;11.10;;
22282;SDS011;11310;51.528;21.204;2023-09-30T05:42:57;25.77;;;9.98;;
22282;SDS011;11310;51.528;21.204;2023-09-30T05:45:27;22.90;;;11.57;;
22282;SDS011;11310;51.528;21.204;2023-09-30T05:48:02;26.70;;;12.45;;
22282;SDS011;11310;51.528;21.204;2023-09-30T05:50:33;22.92;;;11.65;;
22282;SDS011;11310;51.528;21.204;2023-09-30T05:53:03;28.13;;;12.75;;
22282;SDS011;11310;51.528;21.204;2023-09-30T05:55:32;28.58;;;14.43;;
22282;SDS011;11310;51.528;21.204;2023-09-30T05:58:06;30.38;;;16.65;;
22282;SDS011;11310;51.528;21.204;2023-09-30T06:00:35;20.08;;;10.68;;
22282;SDS011;11310;51.528;21.204;2023-09-30T06:03:06;21.23;;;12.57;;
22282;SDS011;11310;51.528;21.204;2023-09-30T06:05:38;19.85;;;9.88;;
22282;SDS011;11310;51.528;21.204;2023-09-30T06:08:08;22.98;;;12.40;;
22282;SDS011;11310;51.528;21.204;2023-09-30T06:10:41;18.55;;;10.07;;
22282;SDS011;11310;51.528;21.204;2023-09-30T06:13:10;24.15;;;12.98;;
22282;SDS011;11310;51.528;21.204;2023-09-30T06:15:39;27.90;;;16.75;;
22282;SDS011;11310;51.528;21.204;2023-09-30T06:18:12;20.73;;;12.00;;
22282;SDS011;11310;51.528;21.204;2023-09-30T06:20:42;16.10;;;9.52;;
22282;SDS011;11310;51.528;21.204;2023-09-30T06:23:11;27.10;;;13.38;;
22282;SDS011;11310;51.528;21.204;2023-09-30T06:25:40;16.65;;;9.73;;
22282;SDS011;11310;51.528;21.204;2023-09-30T06:28:09;32.50;;;17.98;;
22282;SDS011;11310;51.528;21.204;2023-09-30T06:30:39;18.90;;;9.80;;
22282;SDS011;11310;51.528;21.204;2023-09-30T06:33:11;21.75;;;13.05;;
22282;SDS011;11310;51.528;21.204;2023-09-30T06:35:42;16.17;;;9.07;;
22282;SDS011;11310;51.528;21.204;2023-09-30T06:38:17;16.13;;;8.57;;
22282;SDS011;11310;51.528;21.204;2023-09-30T06:40:46;16.85;;;9.52;;
22282;SDS011;11310;51.528;21.204;2023-09-30T06:43:21;21.73;;;13.88;;
22282;SDS011;11310;51.528;21.204;2023-09-30T06:45:50;19.85;;;11.63;;
22282;SDS011;11310;51.528;21.204;2023-09-30T06:48:21;17.55;;;9.45;;
22282;SDS011;11310;51.528;21.204;2023-09-30T06:50:49;20.80;;;12.07;;
22282;SDS011;11310;51.528;21.204;2023-09-30T06:53:19;14.95;;;8.77;;
22282;SDS011;11310;51.528;21.204;2023-09-30T06:55:48;17.27;;;10.20;;
22282;SDS011;11310;51.528;21.204;2023-09-30T06:58:19;16.58;;;9.27;;
22282;SDS011;11310;51.528;21.204;2023-09-30T07:00:48;15.27;;;9.90;;
22282;SDS011;11310;51.528;21.204;2023-09-30T07:03:18;13.70;;;8.57;;
22282;SDS011;11310;51.528;21.204;2023-09-30T07:05:54;17.33;;;9.20;;
22282;SDS011;11310;51.528;21.204;2023-09-30T07:08:24;18.58;;;10.13;;
22282;SDS011;11310;51.528;21.204;2023-09-30T07:10:53;17.13;;;9.45;;
22282;SDS011;11310;51.528;21.204;2023-09-30T07:13:21;18.73;;;10.32;;
22282;SDS011;11310;51.528;21.204;2023-09-30T07:15:50;15.38;;;8.13;;
22282;SDS011;11310;51.528;21.204;2023-09-30T07:18:19;17.88;;;10.57;;
22282;SDS011;11310;51.528;21.204;2023-09-30T07:20:47;21.45;;;10.95;;
22282;SDS011;11310;51.528;21.204;2023-09-30T07:23:17;24.05;;;12.35;;
22282;SDS011;11310;51.528;21.204;2023-09-30T07:25:47;19.65;;;11.05;;
22282;SDS011;11310;51.528;21.204;2023-09-30T07:28:21;18.95;;;9.80;;
22282;SDS011;11310;51.528;21.204;2023-09-30T07:30:52;17.05;;;10.30;;
22282;SDS011;11310;51.528;21.204;2023-09-30T07:33:26;17.75;;;9.98;;
22282;SDS011;11310;51.528;21.204;2023-09-30T07:35:56;16.40;;;9.95;;
22282;SDS011;11310;51.528;21.204;2023-09-30T07:38:26;20.70;;;11.93;;
22282;SDS011;11310;51.528;21.204;2023-09-30T07:40:55;20.58;;;9.90;;
22282;SDS011;11310;51.528;21.204;2023-09-30T07:43:24;19.05;;;10.57;;
22282;SDS011;11310;51.528;21.204;2023-09-30T07:45:53;15.20;;;7.93;;
22282;SDS011;11310;51.528;21.204;2023-09-30T07:48:25;18.75;;;10.60;;
22282;SDS011;11310;51.528;21.204;2023-09-30T07:50:53;14.90;;;8.40;;
22282;SDS011;11310;51.528;21.204;2023-09-30T07:53:23;20.20;;;10.68;;
22282;SDS011;11310;51.528;21.204;2023-09-30T07:55:53;18.00;;;9.52;;
22282;SDS011;11310;51.528;21.204;2023-09-30T07:58:23;18.77;;;10.93;;
22282;SDS011;11310;51.528;21.204;2023-09-30T08:00:52;15.82;;;9.48;;
22282;SDS011;11310;51.528;21.204;2023-09-30T08:03:22;17.08;;;11.25;;
22282;SDS011;11310;51.528;21.204;2023-09-30T08:05:51;14.80;;;9.15;;
22282;SDS011;11310;51.528;21.204;2023-09-30T08:08:20;17.92;;;9.77;;
22282;SDS011;11310;51.528;21.204;2023-09-30T08:10:53;17.42;;;9.68;;
22282;SDS011;11310;51.528;21.204;2023-09-30T08:13:22;14.85;;;8.23;;
22282;SDS011;11310;51.528;21.204;2023-09-30T08:15:52;14.57;;;8.70;;
22282;SDS011;11310;51.528;21.204;2023-09-30T08:18:21;17.42;;;9.20;;
22282;SDS011;11310;51.528;21.204;2023-09-30T08:20:53;17.33;;;10.70;;
22282;SDS011;11310;51.528;21.204;2023-09-30T08:23:27;15.02;;;8.40;;
22282;SDS011;11310;51.528;21.204;2023-09-30T08:25:59;16.00;;;9.77;;
22282;SDS011;11310;51.528;21.204;2023-09-30T08:28:28;13.10;;;8.18;;
22282;SDS011;11310;51.528;21.204;2023-09-30T08:31:01;13.75;;;9.15;;
22282;SDS011;11310;51.528;21.204;2023-09-30T08:33:31;15.43;;;8.88;;
22282;SDS011;11310;51.528;21.204;2023-09-30T08:36:01;14.75;;;8.60;;
22282;SDS011;11310;51.528;21.204;2023-09-30T08:38:37;16.30;;;7.97;;
22282;SDS011;11310;51.528;21.204;2023-09-30T08:41:08;17.23;;;9.02;;
22282;SDS011;11310;51.528;21.204;2023-09-30T08:43:37;14.07;;;8.52;;
22282;SDS011;11310;51.528;21.204;2023-09-30T08:46:07;13.75;;;8.93;;
22282;SDS011;11310;51.528;21.204;2023-09-30T08:48:38;14.00;;;8.00;;
22282;SDS011;11310;51.528;21.204;2023-09-30T08:51:11;14.27;;;8.73;;
22282;SDS011;11310;51.528;21.204;2023-09-30T08:53:41;13.87;;;8.53;;
22282;SDS011;11310;51.528;21.204;2023-09-30T08:59:02;15.23;;;8.60;;
22282;SDS011;11310;51.528;21.204;2023-09-30T09:01:31;19.65;;;9.18;;
22282;SDS011;11310;51.528;21.204;2023-09-30T09:04:03;15.75;;;8.60;;
22282;SDS011;11310;51.528;21.204;2023-09-30T09:06:35;17.33;;;9.45;;
22282;SDS011;11310;51.528;21.204;2023-09-30T09:09:13;12.55;;;8.13;;
22282;SDS011;11310;51.528;21.204;2023-09-30T09:11:45;16.95;;;10.80;;
22282;SDS011;11310;51.528;21.204;2023-09-30T09:14:17;15.43;;;9.45;;
22282;SDS011;11310;51.528;21.204;2023-09-30T09:16:52;13.25;;;8.68;;
22282;SDS011;11310;51.528;21.204;2023-09-30T09:19:25;15.20;;;8.77;;
22282;SDS011;11310;51.528;21.204;2023-09-30T09:21:55;15.48;;;8.63;;
22282;SDS011;11310;51.528;21.204;2023-09-30T09:24:29;13.03;;;8.53;;
22282;SDS011;11310;51.528;21.204;2023-09-30T09:27:09;17.98;;;8.63;;
22282;SDS011;11310;51.528;21.204;2023-09-30T09:29:39;15.48;;;7.80;;
22282;SDS011;11310;51.528;21.204;2023-09-30T09:32:10;15.70;;;9.30;;
22282;SDS011;11310;51.528;21.204;2023-09-30T09:34:40;15.20;;;8.30;;
22282;SDS011;11310;51.528;21.204;2023-09-30T09:37:14;13.80;;;9.35;;
22282;SDS011;11310;51.528;21.204;2023-09-30T09:39:50;14.32;;;8.15;;
22282;SDS011;11310;51.528;21.204;2023-09-30T09:42:25;13.15;;;9.13;;
22282;SDS011;11310;51.528;21.204;2023-09-30T09:44:55;16.00;;;9.18;;
22282;SDS011;11310;51.528;21.204;2023-09-30T09:47:25;13.25;;;7.65;;
22282;SDS011;11310;51.528;21.204;2023-09-30T09:49:56;16.88;;;8.13;;
22282;SDS011;11310;51.528;21.204;2023-09-30T09:52:25;14.75;;;8.25;;
22282;SDS011;11310;51.528;21.204;2023-09-30T09:54:56;18.00;;;8.80;;
22282;SDS011;11310;51.528;21.204;2023-09-30T09:57:27;16.35;;;9.65;;
22282;SDS011;11310;51.528;21.204;2023-09-30T09:59:59;16.60;;;9.95;;
22282;SDS011;11310;51.528;21.204;2023-09-30T10:02:33;13.73;;;9.00;;
22282;SDS011;11310;51.528;21.204;2023-09-30T10:05:04;18.05;;;9.70;;
22282;SDS011;11310;51.528;21.204;2023-09-30T10:07:37;20.75;;;9.45;;
22282;SDS011;11310;51.528;21.204;2023-09-30T10:10:10;14.25;;;9.30;;
22282;SDS011;11310;51.528;21.204;2023-09-30T10:12:49;16.15;;;8.88;;
22282;SDS011;11310;51.528;21.204;2023-09-30T10:18:10;18.33;;;11.48;;
22282;SDS011;11310;51.528;21.204;2023-09-30T10:20:42;17.38;;;11.02;;
22282;SDS011;11310;51.528;21.204;2023-09-30T10:23:20;16.42;;;10.48;;
22282;SDS011;11310;51.528;21.204;2023-09-30T10:26:13;13.38;;;9.60;;
22282;SDS011;11310;51.528;21.204;2023-09-30T10:28:52;15.77;;;9.23;;
22282;SDS011;11310;51.528;21.204;2023-09-30T10:31:21;15.35;;;9.73;;
22282;SDS011;11310;51.528;21.204;2023-09-30T10:36:53;15.02;;;9.13;;
22282;SDS011;11310;51.528;21.204;2023-09-30T10:42:45;14.80;;;8.02;;
22282;SDS011;11310;51.528;21.204;2023-09-30T10:51:10;17.90;;;8.43;;
22282;SDS011;11310;51.528;21.204;2023-09-30T10:53:44;18.25;;;7.93;;
22282;SDS011;11310;51.528;21.204;2023-09-30T10:56:19;14.32;;;9.15;;
22282;SDS011;11310;51.528;21.204;2023-09-30T10:58:55;14.80;;;7.88;;
22282;SDS011;11310;51.528;21.204;2023-09-30T11:01:33;15.27;;;8.02;;
22282;SDS011;11310;51.528;21.204;2023-09-30T11:04:04;11.68;;;7.28;;
22282;SDS011;11310;51.528;21.204;2023-09-30T11:06:39;14.88;;;9.30;;
22282;SDS011;11310;51.528;21.204;2023-09-30T11:09:15;10.25;;;6.47;;
22282;SDS011;11310;51.528;21.204;2023-09-30T11:11:50;13.15;;;8.73;;
22282;SDS011;11310;51.528;21.204;2023-09-30T11:14:23;11.73;;;6.00;;
22282;SDS011;11310;51.528;21.204;2023-09-30T11:17:02;11.65;;;6.20;;
22282;SDS011;11310;51.528;21.204;2023-09-30T11:19:35;10.63;;;5.82;;
22282;SDS011;11310;51.528;21.204;2023-09-30T11:22:08;9.20;;;4.90;;
22282;SDS011;11310;51.528;21.204;2023-09-30T11:24:43;11.18;;;4.68;;
22282;SDS011;11310;51.528;21.204;2023-09-30T11:27:22;14.07;;;5.23;;
22282;SDS011;11310;51.528;21.204;2023-09-30T11:29:52;8.05;;;3.97;;
22282;SDS011;11310;51.528;21.204;2023-09-30T11:32:27;7.97;;;3.63;;
22282;SDS011;11310;51.528;21.204;2023-09-30T11:34:59;8.85;;;4.28;;
22282;SDS011;11310;51.528;21.204;2023-09-30T11:37:32;8.48;;;3.63;;
22282;SDS011;11310;51.528;21.204;2023-09-30T11:40:11;8.55;;;3.60;;
22282;SDS011;11310;51.528;21.204;2023-09-30T11:45:42;9.77;;;3.47;;
22282;SDS011;11310;51.528;21.204;2023-09-30T11:50:54;9.63;;;3.80;;
22282;SDS011;11310;51.528;21.204;2023-09-30T11:53:32;10.63;;;3.72;;
22282;SDS011;11310;51.528;21.204;2023-09-30T11:56:11;15.95;;;5.13;;
22282;SDS011;11310;51.528;21.204;2023-09-30T11:58:47;11.23;;;4.35;;
22282;SDS011;11310;51.528;21.204;2023-09-30T12:01:27;10.75;;;3.88;;
22282;SDS011;11310;51.528;21.204;2023-09-30T12:04:00;8.82;;;3.63;;
22282;SDS011;11310;51.528;21.204;2023-09-30T12:06:37;12.25;;;3.80;;
22282;SDS011;11310;51.528;21.204;2023-09-30T12:09:07;12.35;;;3.60;;
22282;SDS011;11310;51.528;21.204;2023-09-30T12:11:41;8.75;;;3.45;;
22282;SDS011;11310;51.528;21.204;2023-09-30T12:14:12;11.32;;;3.50;;
22282;SDS011;11310;51.528;21.204;2023-09-30T12:16:41;10.55;;;3.42;;
22282;SDS011;11310;51.528;21.204;2023-09-30T12:19:13;7.47;;;2.72;;
22282;SDS011;11310;51.528;21.204;2023-09-30T12:21:42;9.43;;;3.25;;
22282;SDS011;11310;51.528;21.204;2023-09-30T12:24:14;9.00;;;2.97;;
22282;SDS011;11310;51.528;21.204;2023-09-30T12:26:49;9.85;;;3.15;;
22282;SDS011;11310;51.528;21.204;2023-09-30T12:29:30;7.28;;;2.53;;
22282;SDS011;11310;51.528;21.204;2023-09-30T12:31:59;7.47;;;2.90;;
22282;SDS011;11310;51.528;21.204;2023-09-30T12:34:30;7.13;;;3.00;;
22282;SDS011;11310;51.528;21.204;2023-09-30T12:37:02;9.57;;;2.92;;
22282;SDS011;11310;51.528;21.204;2023-09-30T12:39:32;8.35;;;2.70;;
22282;SDS011;11310;51.528;21.204;2023-09-30T12:42:13;9.98;;;2.80;;
22282;SDS011;11310;51.528;21.204;2023-09-30T12:44:46;6.78;;;2.40;;
22282;SDS011;11310;51.528;21.204;2023-09-30T12:47:14;6.53;;;2.47;;
22282;SDS011;11310;51.528;21.204;2023-09-30T12:49:48;12.75;;;2.50;;
22282;SDS011;11310;51.528;21.204;2023-09-30T12:52:26;7.90;;;2.50;;
22282;SDS011;11310;51.528;21.204;2023-09-30T12:55:02;8.90;;;2.90;;
22282;SDS011;11310;51.528;21.204;2023-09-30T12:57:32;8.95;;;2.70;;
22282;SDS011;11310;51.528;21.204;2023-09-30T13:00:02;8.45;;;2.75;;
22282;SDS011;11310;51.528;21.204;2023-09-30T13:02:31;6.47;;;2.40;;
22282;SDS011;11310;51.528;21.204;2023-09-30T13:05:04;8.20;;;2.60;;
22282;SDS011;11310;51.528;21.204;2023-09-30T13:07:34;8.23;;;2.67;;
22282;SDS011;11310;51.528;21.204;2023-09-30T13:10:06;12.48;;;3.10;;
22282;SDS011;11310;51.528;21.204;2023-09-30T13:12:39;12.93;;;2.85;;
22282;SDS011;11310;51.528;21.204;2023-09-30T13:15:10;7.82;;;2.50;;
22282;SDS011;11310;51.528;21.204;2023-09-30T13:17:42;16.27;;;3.05;;
22282;SDS011;11310;51.528;21.204;2023-09-30T13:20:15;6.13;;;2.33;;
22282;SDS011;11310;51.528;21.204;2023-09-30T13:22:50;6.50;;;2.30;;
22282;SDS011;11310;51.528;21.204;2023-09-30T13:25:21;6.13;;;2.33;;
22282;SDS011;11310;51.528;21.204;2023-09-30T13:27:53;8.07;;;2.50;;
22282;SDS011;11310;51.528;21.204;2023-09-30T13:30:23;8.77;;;2.45;;
22282;SDS011;11310;51.528;21.204;2023-09-30T13:32:55;5.60;;;2.30;;
22282;SDS011;11310;51.528;21.204;2023-09-30T13:35:28;10.93;;;2.50;;
22282;SDS011;11310;51.528;21.204;2023-09-30T13:37:57;6.57;;;2.53;;
22282;SDS011;11310;51.528;21.204;2023-09-30T13:40:34;9.35;;;2.45;;
22282;SDS011;11310;51.528;21.204;2023-09-30T13:43:09;6.47;;;2.42;;
22282;SDS011;11310;51.528;21.204;2023-09-30T13:45:44;12.73;;;2.50;;
22282;SDS011;11310;51.528;21.204;2023-09-30T13:48:15;6.22;;;2.40;;
22282;SDS011;11310;51.528;21.204;2023-09-30T13:50:50;8.55;;;2.60;;
22282;SDS011;11310;51.528;21.204;2023-09-30T13:53:19;6.97;;;2.40;;
22282;SDS011;11310;51.528;21.204;2023-09-30T13:55:50;5.85;;;2.53;;
22282;SDS011;11310;51.528;21.204;2023-09-30T13:58:25;8.35;;;2.28;;
22282;SDS011;11310;51.528;21.204;2023-09-30T14:00:53;5.40;;;2.25;;
22282;SDS011;11310;51.528;21.204;2023-09-30T14:03:23;6.47;;;2.33;;
22282;SDS011;11310;51.528;21.204;2023-09-30T14:05:54;8.98;;;2.45;;
22282;SDS011;11310;51.528;21.204;2023-09-30T14:08:23;8.50;;;3.13;;
22282;SDS011;11310;51.528;21.204;2023-09-30T14:10:59;6.30;;;2.47;;
22282;SDS011;11310;51.528;21.204;2023-09-30T14:13:49;5.55;;;2.17;;
22282;SDS011;11310;51.528;21.204;2023-09-30T14:16:19;8.48;;;2.10;;
22282;SDS011;11310;51.528;21.204;2023-09-30T14:18:48;6.30;;;2.20;;
22282;SDS011;11310;51.528;21.204;2023-09-30T14:21:24;8.10;;;2.20;;
22282;SDS011;11310;51.528;21.204;2023-09-30T14:23:53;7.53;;;2.38;;
22282;SDS011;11310;51.528;21.204;2023-09-30T14:26:22;5.22;;;2.30;;
22282;SDS011;11310;51.528;21.204;2023-09-30T14:28:51;5.35;;;2.10;;
22282;SDS011;11310;51.528;21.204;2023-09-30T14:31:20;7.63;;;2.50;;
22282;SDS011;11310;51.528;21.204;2023-09-30T14:33:49;5.20;;;2.33;;
22282;SDS011;11310;51.528;21.204;2023-09-30T14:36:18;6.20;;;2.30;;
22282;SDS011;11310;51.528;21.204;2023-09-30T14:38:50;6.95;;;2.13;;
22282;SDS011;11310;51.528;21.204;2023-09-30T14:41:38;7.05;;;1.95;;
22282;SDS011;11310;51.528;21.204;2023-09-30T14:44:07;9.15;;;2.53;;
22282;SDS011;11310;51.528;21.204;2023-09-30T14:46:39;5.88;;;2.08;;
22282;SDS011;11310;51.528;21.204;2023-09-30T14:49:08;5.88;;;1.98;;
22282;SDS011;11310;51.528;21.204;2023-09-30T14:51:37;20.63;;;9.25;;
22282;SDS011;11310;51.528;21.204;2023-09-30T14:54:07;16.65;;;8.23;;
22282;SDS011;11310;51.528;21.204;2023-09-30T14:56:39;18.30;;;6.55;;
22282;SDS011;11310;51.528;21.204;2023-09-30T14:59:08;27.10;;;11.30;;
22282;SDS011;11310;51.528;21.204;2023-09-30T15:01:36;38.25;;;15.10;;
22282;SDS011;11310;51.528;21.204;2023-09-30T15:04:06;27.77;;;11.40;;